Time;durP1;ratioP1;P1;durP2;ratioP2;P2;SDS_P1;SDS_P2;PMS_P1;PMS_P2;Temp;Humidity;BMP_temperature;BMP_pressure;BME280_temperature;BME280_humidity;BME280_pressure;Samples;Min_cycle;Max_cycle;Signal;HPM_P1;HPM_P2
2022/01/14 00:02:43;;;;;;;61.70;56.60;;;;;;;1.41;100.00;104100.05;1841476;76;86081;-70
2022/01/14 00:08:26;;;;;;;63.27;58.00;;;;;;;1.35;100.00;104100.12;1885673;73;86479;-73
2022/01/14 00:14:21;;;;;;;61.23;56.10;;;;;;;1.40;100.00;104093.70;1938102;73;85501;-73
2022/01/14 00:19:57;;;;;;;61.30;56.50;;;;;;;1.41;100.00;104089.96;1984647;71;39554;-69
2022/01/14 00:31:45;;;;;;;63.37;57.93;;;;;;;1.35;100.00;104067.25;1981650;69;85923;-72
2022/01/14 00:37:30;;;;;;;72.67;66.17;;;;;;;1.37;100.00;104056.99;1829637;76;85902;-74
2022/01/14 00:43:15;;;;;;;71.97;65.43;;;;;;;1.41;100.00;104046.14;1919275;74;85589;-73
2022/01/14 00:49:00;;;;;;;72.83;66.37;;;;;;;1.60;100.00;104042.47;1985809;71;39563;-69
2022/01/14 00:54:46;;;;;;;69.63;63.50;;;;;;;1.57;100.00;104045.02;1845521;76;86349;-69
2022/01/14 01:00:32;;;;;;;70.53;64.67;;;;;;;1.35;100.00;104048.95;1829927;76;86270;-73
2022/01/14 01:06:18;;;;;;;71.83;65.53;;;;;;;1.42;100.00;104054.69;1908410;72;86895;-73
2022/01/14 01:12:10;;;;;;;68.97;62.83;;;;;;;1.45;100.00;104051.67;1914229;73;86107;-73
2022/01/14 01:17:54;;;;;;;71.53;64.93;;;;;;;1.37;100.00;104049.64;1986661;71;39521;-69
2022/01/14 01:23:39;;;;;;;70.37;64.30;;;;;;;1.29;100.00;104059.60;1843333;76;85026;-69
2022/01/14 01:29:44;;;;;;;69.90;63.47;;;;;;;1.12;100.00;104052.12;1893914;73;86485;-70
2022/01/14 01:35:17;;;;;;;73.73;67.10;;;;;;;1.30;100.00;104066.31;1913080;72;86588;-69
2022/01/14 01:41:01;;;;;;;72.50;66.30;;;;;;;1.30;100.00;104068.19;1984893;71;39576;-69
2022/01/14 01:46:48;;;;;;;70.27;64.27;;;;;;;1.28;100.00;104064.21;1852056;76;86710;-70
2022/01/14 01:52:33;;;;;;;74.67;68.20;;;;;;;1.26;100.00;104062.14;1803295;78;85427;-73
2022/01/14 01:58:18;;;;;;;73.83;66.83;;;;;;;1.37;100.00;104067.45;1917258;72;86804;-69
2022/01/14 02:04:02;;;;;;;74.07;67.53;;;;;;;1.24;100.00;104068.78;1974248;72;85528;-70
2022/01/14 02:09:44;;;;;;;76.50;69.23;;;;;;;1.40;100.00;104067.68;1835452;76;85915;-69
2022/01/14 02:15:46;;;;;;;67.43;61.53;;;;;;;1.62;100.00;104071.97;1895978;74;86360;-69
2022/01/14 02:27:31;;;;;;;71.57;65.13;;;;;;;1.16;100.00;104067.25;1809039;78;86437;-72
2022/01/14 02:33:17;;;;;;;71.87;65.27;;;;;;;1.14;100.00;104061.94;1923900;73;86097;-69
2022/01/14 02:39:03;;;;;;;76.67;69.90;;;;;;;1.03;100.00;104054.38;1818244;78;85536;-68
2022/01/14 02:44:49;;;;;;;70.63;64.50;;;;;;;1.04;100.00;104050.11;1945025;71;39732;-73
2022/01/14 02:50:41;;;;;;;73.40;67.03;;;;;;;1.01;100.00;104048.17;1893440;74;86878;-72
2022/01/14 02:56:27;;;;;;;71.53;65.17;;;;;;;1.06;100.00;104044.50;1905343;73;86726;-73
2022/01/14 03:02:12;;;;;;;70.70;64.03;;;;;;;1.12;100.00;104035.69;1905448;74;86261;-69
2022/01/14 03:07:55;;;;;;;71.57;65.17;;;;;;;1.27;100.00;104037.86;1976033;71;39748;-73
2022/01/14 03:13:40;;;;;;;75.37;68.77;;;;;;;1.14;100.00;104042.77;1852548;75;86603;-69
2022/01/14 03:19:25;;;;;;;71.90;65.50;;;;;;;1.27;100.00;104040.59;1894788;74;86680;-74
2022/01/14 03:31:13;;;;;;;73.33;66.43;;;;;;;0.94;100.00;104041.55;1928755;72;86528;-73
2022/01/14 03:36:58;;;;;;;74.73;68.13;;;;;;;0.88;100.00;104034.27;1894372;74;39668;-69
2022/01/14 03:42:42;;;;;;;71.87;65.37;;;;;;;0.75;100.00;104025.98;1834498;76;86142;-69
2022/01/14 03:48:27;;;;;;;71.70;65.60;;;;;;;0.81;100.00;104024.05;1888516;74;86622;-73
2022/01/14 03:54:12;;;;;;;70.00;63.83;;;;;;;0.94;100.00;104034.21;1907025;74;86694;-69
2022/01/14 03:59:56;;;;;;;71.33;65.03;;;;;;;0.98;100.00;104027.44;1986399;71;39720;-69
2022/01/14 04:05:45;;;;;;;72.23;65.97;;;;;;;0.89;100.00;104022.33;1843587;76;86821;-69
2022/01/14 04:11:30;;;;;;;69.00;62.83;;;;;;;0.66;100.00;104004.94;1874171;75;86567;-73
2022/01/14 04:17:17;;;;;;;68.40;62.60;;;;;;;0.78;100.00;104007.40;1910480;74;85831;-69
2022/01/14 04:23:01;;;;;;;68.00;61.73;;;;;;;0.78;100.00;104002.42;1985008;71;39701;-73
2022/01/14 04:28:45;;;;;;;67.00;61.13;;;;;;;0.62;100.00;103988.45;1842082;76;85543;-73
2022/01/14 04:34:30;;;;;;;69.03;63.33;;;;;;;0.94;100.00;103979.47;1826637;76;86338;-73
2022/01/14 04:40:15;;;;;;;65.60;59.70;;;;;;;0.72;100.00;103972.42;1911039;74;86510;-73
2022/01/14 04:46:24;;;;;;;65.90;60.13;;;;;;;0.95;100.00;103970.23;1985897;71;39585;-72
2022/01/14 04:51:50;;;;;;;64.80;59.63;;;;;;;0.63;100.00;103962.34;1924664;71;39740;-72
2022/01/14 04:57:37;;;;;;;62.03;56.53;;;;;;;0.72;100.00;103953.27;1849167;76;86265;-69
2022/01/14 05:03:25;;;;;;;64.70;59.27;;;;;;;0.85;100.00;103947.50;1887364;74;86642;-69
2022/01/14 05:09:18;;;;;;;62.97;57.67;;;;;;;0.74;100.00;103936.19;1922535;72;86164;-69
2022/01/14 05:14:54;;;;;;;66.83;61.03;;;;;;;0.75;100.00;103926.11;1986849;71;40078;-73
2022/01/14 05:20:39;;;;;;;62.27;56.67;;;;;;;0.74;100.00;103920.27;1846547;76;86455;-69
2022/01/14 05:26:23;;;;;;;61.20;55.80;;;;;;;0.73;100.00;103923.50;1892461;75;86748;-70
2022/01/14 05:32:12;;;;;;;63.03;57.63;;;;;;;0.91;100.00;103929.98;1917081;72;86695;-69
2022/01/14 05:37:56;;;;;;;66.47;61.33;;;;;;;0.53;100.00;103936.84;1985876;71;39370;-69
2022/01/14 05:43:40;;;;;;;63.00;57.83;;;;;;;0.22;100.00;103924.28;1856086;75;85487;-72
2022/01/14 05:49:26;;;;;;;66.30;61.03;;;;;;;0.28;100.00;103925.09;1906505;74;86681;-69
2022/01/14 05:55:16;;;;;;;67.77;62.43;;;;;;;0.29;100.00;103923.60;1934429;73;86760;-69
2022/01/14 06:01:01;;;;;;;62.60;57.70;;;;;;;0.36;100.00;103939.78;1975273;71;39523;-73
2022/01/14 06:06:44;;;;;;;64.47;59.27;;;;;;;0.23;100.00;103940.56;1832436;76;85324;-72
2022/01/14 06:12:28;;;;;;;62.30;57.10;;;;;;;0.31;100.00;103946.17;1872914;75;86589;-68
2022/01/14 06:18:14;;;;;;;67.80;62.07;;;;;;;0.76;100.00;103949.23;1942989;73;86284;-74
2022/01/14 06:23:58;;;;;;;62.67;57.17;;;;;;;0.55;100.00;103953.98;1924587;71;39565;-69
2022/01/14 06:29:42;;;;;;;65.37;59.90;;;;;;;0.34;100.00;103949.98;1844780;76;86212;-71
2022/01/14 06:35:26;;;;;;;64.60;58.97;;;;;;;0.43;100.00;103948.27;1873331;75;86014;-70
2022/01/14 06:41:10;;;;;;;66.47;60.57;;;;;;;0.69;100.00;103940.36;1905167;72;86257;-74
2022/01/14 06:46:54;;;;;;;66.37;60.20;;;;;;;0.65;100.00;103944.39;1986164;71;39585;-74
2022/01/14 06:52:38;;;;;;;67.27;61.37;;;;;;;0.78;100.00;103929.41;1846625;76;86518;-73
2022/01/14 06:58:25;;;;;;;66.53;60.80;;;;;;;0.83;100.00;103932.58;1890748;74;86530;-68
2022/01/14 07:04:10;;;;;;;65.43;59.70;;;;;;;0.62;100.00;103932.38;1960010;73;86426;-68
2022/01/14 07:09:57;;;;;;;65.10;59.30;;;;;;;0.59;100.00;103935.41;1979592;71;39681;-72
2022/01/14 07:15:42;;;;;;;66.20;60.50;;;;;;;0.48;100.00;103943.23;1829150;76;86639;-74
2022/01/14 07:21:26;;;;;;;70.83;64.67;;;;;;;0.39;100.00;103939.98;1871103;75;85378;-69
2022/01/14 07:27:10;;;;;;;68.07;62.23;;;;;;;0.34;100.00;103936.31;1902250;72;86481;-73
2022/01/14 07:32:55;;;;;;;70.50;64.00;;;;;;;0.58;100.00;103952.83;1921515;71;39523;-75
2022/01/14 07:38:39;;;;;;;69.97;63.93;;;;;;;0.85;100.00;103952.47;1848131;76;86746;-71
2022/01/14 07:44:23;;;;;;;69.27;63.30;;;;;;;0.62;100.00;103961.10;1883711;73;86070;-70
2022/01/14 07:50:09;;;;;;;71.20;64.90;;;;;;;0.57;100.00;103960.66;1927410;73;86447;-73
2022/01/14 07:55:53;;;;;;;69.03;62.87;;;;;;;1.05;100.00;103959.27;1981208;71;39599;-73
2022/01/14 08:01:39;;;;;;;69.03;63.03;;;;;;;1.00;100.00;103972.53;1849121;76;86334;-73
2022/01/14 08:07:24;;;;;;;68.13;62.27;;;;;;;0.56;100.00;103965.27;1899346;75;86534;-73
2022/01/14 08:13:08;;;;;;;67.37;61.60;;;;;;;0.73;100.00;103970.52;1914904;74;85608;-70
2022/01/14 08:18:52;;;;;;;65.00;59.23;;;;;;;0.79;100.00;103967.22;1927576;71;39700;-70
2022/01/14 08:24:37;;;;;;;72.97;66.70;;;;;;;0.55;100.00;103964.06;1896886;74;86674;-71
2022/01/14 08:30:22;;;;;;;67.00;60.97;;;;;;;0.57;100.00;103967.50;1880444;75;86852;-74
2022/01/14 08:36:06;;;;;;;70.63;64.47;;;;;;;0.76;100.00;103965.65;1918726;74;86105;-74
2022/01/14 08:41:51;;;;;;;69.40;62.83;;;;;;;0.84;100.00;103949.88;1981531;71;39514;-81
2022/01/14 08:47:36;;;;;;;69.10;62.57;;;;;;;0.88;100.00;103945.83;1883716;75;86746;-76
2022/01/14 08:53:22;;;;;;;68.47;62.20;;;;;;;0.95;100.00;103951.56;1880634;76;86316;-75
2022/01/14 08:59:06;;;;;;;73.03;66.17;;;;;;;1.17;100.00;103952.12;1904414;72;85467;-75
2022/01/14 09:04:51;;;;;;;72.30;65.70;;;;;;;1.06;100.00;103935.00;1984135;71;39542;-75
2022/01/14 09:10:34;;;;;;;70.07;63.63;;;;;;;1.31;100.00;103945.31;1888372;74;85578;-80
2022/01/14 09:16:20;;;;;;;71.70;64.97;;;;;;;1.42;100.00;103942.88;1904595;74;85528;-80
2022/01/14 09:22:05;;;;;;;71.83;66.00;;;;;;;1.37;100.00;103937.34;1926176;71;86786;-75
2022/01/14 09:27:52;;;;;;;72.20;65.80;;;;;;;1.50;100.00;103933.44;1891202;74;86356;-71
2022/01/14 09:33:38;;;;;;;75.47;69.13;;;;;;;1.54;100.00;103941.18;1881119;75;86141;-81
2022/01/14 09:39:23;;;;;;;72.50;66.03;;;;;;;1.59;100.00;103928.40;1889830;75;86094;-74
2022/01/14 09:45:09;;;;;;;79.47;72.30;;;;;;;1.71;100.00;103929.96;1908429;72;86307;-72
2022/01/14 09:50:52;;;;;;;80.47;73.70;;;;;;;1.73;100.00;103924.67;1987534;71;39530;-74
2022/01/14 09:56:41;;;;;;;79.27;72.10;;;;;;;1.84;100.00;103927.20;1902537;74;86820;-74
2022/01/14 10:02:34;;;;;;;77.77;70.37;;;;;;;1.78;100.00;103926.45;1884955;73;86080;-81
2022/01/14 10:08:23;;;;;;;75.60;69.13;;;;;;;2.13;100.00;103926.18;1945940;71;85495;-75
2022/01/14 10:14:12;;;;;;;77.53;70.27;;;;;;;2.51;100.00;103922.28;1912708;72;86396;-74
2022/01/14 10:19:56;;;;;;;79.07;71.87;;;;;;;2.36;100.00;103919.20;1981564;71;39543;-80
2022/01/14 10:25:41;;;;;;;78.50;71.47;;;;;;;3.03;100.00;103924.63;1848392;75;86042;-75
2022/01/14 10:31:35;;;;;;;80.67;73.40;;;;;;;2.71;100.00;103916.97;1800645;77;86421;-72
2022/01/14 10:37:34;;;;;;;78.60;71.80;;;;;;;2.60;100.00;103917.23;1903398;73;86458;-74
2022/01/14 10:43:23;;;;;;;75.90;69.20;;;;;;;2.94;100.00;103911.34;1817798;77;85517;-80
2022/01/14 10:49:07;;;;;;;72.17;65.53;;;;;;;3.35;100.00;103890.99;1935176;72;85961;-71
2022/01/14 10:54:53;;;;;;;75.70;69.00;;;;;;;3.53;100.00;103889.03;1987792;70;39611;-75
2022/01/14 11:00:44;;;;;;;75.10;68.70;;;;;;;3.49;100.00;103878.02;1846224;76;86576;-72
2022/01/14 11:06:31;;;;;;;75.93;69.13;;;;;;;3.88;100.00;103878.36;1874101;74;86112;-80
2022/01/14 11:12:18;;;;;;;84.73;77.83;;;;;;;3.72;100.00;103872.30;1921528;73;84820;-80
2022/01/14 11:18:06;;;;;;;86.57;79.60;;;;;;;4.18;100.00;103861.24;1939344;71;39608;-75
2022/01/14 11:23:51;;;;;;;83.17;76.47;;;;;;;4.13;100.00;103848.50;1987462;71;39561;-74
2022/01/14 11:29:37;;;;;;;83.70;77.20;;;;;;;4.43;100.00;103836.84;1807683;78;86660;-75
2022/01/14 11:35:26;;;;;;;84.23;77.53;;;;;;;4.54;100.00;103834.23;1885783;74;86033;-74
2022/01/14 11:41:16;;;;;;;76.23;70.37;;;;;;;4.57;100.00;103817.41;1947965;72;86229;-81
2022/01/14 11:47:03;;;;;;;74.57;68.50;;;;;;;4.80;100.00;103813.39;1976243;72;86345;-82
2022/01/14 11:52:50;;;;;;;72.87;67.23;;;;;;;4.44;100.00;103801.41;1796427;78;86369;-82
2022/01/14 11:58:44;;;;;;;68.53;63.37;;;;;;;5.07;100.00;103810.25;1837740;76;86594;-81
2022/01/14 12:05:22;;;;;;;75.97;70.30;;;;;;;5.08;100.00;103800.09;1821206;77;85960;-75
2022/01/14 12:11:29;;;;;;;71.10;65.70;;;;;;;4.96;100.00;103803.20;1872261;75;85376;-76
2022/01/14 12:17:15;;;;;;;73.30;67.70;;;;;;;4.92;100.00;103792.73;1867563;76;86261;-77
2022/01/14 12:23:10;;;;;;;67.50;62.40;;;;;;;5.19;100.00;103777.65;1925479;71;39733;-75
2022/01/14 12:29:13;;;;;;;67.77;62.37;;;;;;;5.26;100.00;103769.86;1980920;71;39573;-74
2022/01/14 12:35:21;;;;;;;70.23;64.43;;;;;;;5.41;100.00;103771.36;1919332;72;85511;-76
2022/01/14 12:41:07;;;;;;;70.37;64.97;;;;;;;5.64;100.00;103761.25;1923814;73;86570;-76
2022/01/14 12:47:00;;;;;;;61.13;56.43;;;;;;;6.06;100.00;103748.91;1920248;71;39640;-75
2022/01/14 12:52:51;;;;;;;65.17;60.23;;;;;;;5.99;100.00;103733.59;1829271;76;86388;-73
2022/01/14 12:58:54;;;;;;;61.20;56.43;;;;;;;6.05;100.00;103723.22;1896429;74;86392;-74
2022/01/14 13:08:02;;;;;;;62.83;57.77;;;;;;;5.98;100.00;103719.48;1939793;71;40263;-76
2022/01/14 13:13:48;;;;;;;59.83;54.70;;;;;;;6.22;100.00;103710.13;1835311;75;86719;-76
2022/01/14 13:19:34;;;;;;;62.30;57.47;;;;;;;6.40;100.00;103690.80;1808620;78;86452;-73
2022/01/14 13:25:21;;;;;;;60.90;56.10;;;;;;;6.79;100.00;103693.83;1929699;73;86180;-76
2022/01/14 13:31:10;;;;;;;59.87;55.07;;;;;;;6.97;100.00;103673.58;1917610;74;86541;-77
2022/01/14 13:36:55;;;;;;;56.97;52.53;;;;;;;7.14;100.00;103665.40;1985488;71;39577;-79
2022/01/14 13:42:42;;;;;;;61.17;56.23;;;;;;;7.23;100.00;103659.23;1869283;76;85585;-74
2022/01/14 13:48:26;;;;;;;58.97;54.10;;;;;;;7.25;100.00;103637.75;1779858;79;86380;-77
2022/01/14 13:54:19;;;;;;;58.60;54.00;;;;;;;7.32;100.00;103632.63;1917307;73;86784;-73
2022/01/14 14:00:14;;;;;;;63.67;59.03;;;;;;;6.99;100.00;103618.95;1982566;71;57802;-78
2022/01/14 14:06:11;;;;;;;64.27;59.13;;;;;;;7.43;100.00;103631.79;1914022;73;86565;-74
2022/01/14 14:12:11;;;;;;;65.33;60.17;;;;;;;6.98;100.00;103621.89;1976123;71;39614;-75
2022/01/14 14:18:05;;;;;;;66.67;61.83;;;;;;;7.46;100.00;103623.95;1944156;71;39575;-73
2022/01/14 14:23:58;;;;;;;72.53;67.43;;;;;;;7.15;100.00;103620.09;1890310;74;85835;-76
2022/01/14 14:29:51;;;;;;;78.20;72.47;;;;;;;7.10;100.00;103622.58;1836428;76;85287;-74
2022/01/14 14:35:39;;;;;;;77.37;71.73;;;;;;;6.96;100.00;103620.73;1884302;74;85464;-74
2022/01/14 14:41:24;;;;;;;78.77;72.77;;;;;;;7.05;100.00;103611.28;1902270;73;86323;-74
2022/01/14 14:47:08;;;;;;;77.27;71.70;;;;;;;6.94;100.00;103602.09;1937783;73;86550;-77
2022/01/14 14:52:54;;;;;;;82.43;76.47;;;;;;;6.58;100.00;103588.78;1979259;71;39380;-76
2022/01/14 14:58:39;;;;;;;78.10;71.87;;;;;;;7.18;100.00;103578.25;1847037;76;86608;-85
2022/01/14 15:04:23;;;;;;;77.90;71.93;;;;;;;6.87;100.00;103576.30;1886288;75;85966;-73
2022/01/14 15:10:15;;;;;;;83.17;77.13;;;;;;;6.48;100.00;103578.02;1938058;73;86380;-74
2022/01/14 15:22:10;;;;;;;78.27;72.13;;;;;;;6.25;100.00;103569.83;1922192;74;86136;-81
2022/01/14 15:27:55;;;;;;;81.07;74.77;;;;;;;5.99;100.00;103559.77;1948049;71;39601;-75
2022/01/14 15:33:40;;;;;;;80.70;74.33;;;;;;;6.44;100.00;103558.73;1831575;76;86149;-76
2022/01/14 15:39:26;;;;;;;81.33;74.70;;;;;;;6.13;100.00;103569.11;1883046;74;86440;-77
2022/01/14 15:45:13;;;;;;;83.17;76.77;;;;;;;5.85;100.00;103560.59;1932902;73;86307;-75
2022/01/14 15:50:58;;;;;;;85.77;79.07;;;;;;;5.67;100.00;103569.73;1986828;71;39518;-76
2022/01/14 15:56:43;;;;;;;79.10;72.53;;;;;;;6.08;100.00;103564.67;1851562;76;86471;-80
2022/01/14 16:05:45;;;;;;;71.07;64.93;;;;;;;6.31;100.00;103562.17;1835726;76;86600;-79
2022/01/14 16:11:34;;;;;;;76.17;69.30;;;;;;;5.77;100.00;103568.95;1895902;74;85603;-75
2022/01/14 16:17:20;;;;;;;74.47;67.90;;;;;;;5.61;100.00;103563.56;1860507;76;86118;-76
2022/01/14 16:23:05;;;;;;;74.20;67.80;;;;;;;5.53;100.00;103565.87;1861270;75;86920;-73
2022/01/14 16:28:51;;;;;;;73.43;67.13;;;;;;;5.44;100.00;103560.95;1984973;71;39666;-77
2022/01/14 16:34:36;;;;;;;74.53;68.50;;;;;;;5.22;100.00;103573.39;1879532;74;85588;-79
2022/01/14 16:40:23;;;;;;;71.70;65.53;;;;;;;4.88;100.00;103569.63;1880624;74;86067;-76
2022/01/14 16:46:07;;;;;;;72.53;66.63;;;;;;;4.82;100.00;103563.48;1916957;74;85818;-73
2022/01/14 16:51:51;;;;;;;75.80;69.03;;;;;;;4.68;100.00;103563.72;1982706;71;39545;-73
2022/01/14 16:57:37;;;;;;;77.30;70.70;;;;;;;4.73;100.00;103564.56;1884952;74;86369;-75
2022/01/14 17:03:24;;;;;;;76.00;69.67;;;;;;;4.73;100.00;103572.81;1868724;74;86851;-74
2022/01/14 17:09:11;;;;;;;74.87;68.20;;;;;;;4.44;100.00;103573.48;1912038;73;85636;-75
2022/01/14 17:14:56;;;;;;;76.00;68.67;;;;;;;4.44;100.00;103567.97;1981490;71;39453;-74
2022/01/14 17:20:43;;;;;;;74.53;68.10;;;;;;;4.39;100.00;103579.52;1842230;76;86561;-74
2022/01/14 17:26:28;;;;;;;75.37;68.53;;;;;;;4.38;100.00;103576.92;1885739;73;85683;-76
2022/01/14 17:32:16;;;;;;;78.77;72.07;;;;;;;4.09;100.00;103568.78;1913057;74;86298;-75
2022/01/14 17:38:04;;;;;;;78.97;71.93;;;;;;;3.91;100.00;103563.13;1980488;71;39776;-75
2022/01/14 17:43:48;;;;;;;79.37;72.47;;;;;;;3.65;100.00;103561.45;1835657;76;86229;-75
2022/01/14 17:49:34;;;;;;;78.73;71.83;;;;;;;3.57;100.00;103573.84;1802070;78;86184;-73
2022/01/14 17:55:20;;;;;;;76.07;69.47;;;;;;;3.68;100.00;103569.86;1909248;72;86388;-73
2022/01/14 18:01:05;;;;;;;77.90;71.07;;;;;;;3.55;100.00;103570.39;1912174;74;85636;-75
2022/01/14 18:06:53;;;;;;;81.67;74.77;;;;;;;3.60;100.00;103569.36;1977590;71;39567;-74
2022/01/14 18:12:49;;;;;;;83.70;76.73;;;;;;;3.57;100.00;103582.08;1875775;75;86479;-73
2022/01/14 18:18:25;;;;;;;79.03;71.90;;;;;;;3.64;100.00;103580.34;1819832;77;86511;-76
2022/01/14 18:24:10;;;;;;;77.73;71.03;;;;;;;3.39;100.00;103572.28;1875730;75;86257;-73
2022/01/14 18:29:54;;;;;;;78.17;71.50;;;;;;;3.25;100.00;103579.34;1943728;71;39731;-73
2022/01/14 18:35:39;;;;;;;80.73;73.50;;;;;;;3.55;100.00;103569.02;1827245;76;86580;-74
2022/01/14 18:41:23;;;;;;;81.13;73.90;;;;;;;3.14;100.00;103563.17;1903973;73;86011;-73
2022/01/14 18:47:07;;;;;;;85.93;78.63;;;;;;;3.04;100.00;103563.32;1927269;72;85526;-74
2022/01/14 18:52:55;;;;;;;84.67;77.07;;;;;;;3.20;100.00;103559.24;1964074;71;39510;-72
2022/01/14 18:58:41;;;;;;;89.70;81.87;;;;;;;3.02;100.00;103543.94;1856910;76;86314;-74
2022/01/14 19:04:25;;;;;;;83.47;75.77;;;;;;;3.19;100.00;103545.16;1890173;75;86530;-80
2022/01/14 19:10:10;;;;;;;80.03;72.93;;;;;;;3.05;100.00;103547.20;1902891;72;86343;-76
2022/01/14 19:15:54;;;;;;;86.00;78.40;;;;;;;2.97;100.00;103547.19;1937252;71;40029;-78
2022/01/14 19:21:39;;;;;;;85.37;78.13;;;;;;;2.93;100.00;103536.71;1815577;78;86457;-72
2022/01/14 19:27:24;;;;;;;82.93;75.53;;;;;;;3.10;100.00;103533.81;1873321;75;86499;-71
2022/01/14 19:33:10;;;;;;;76.97;69.83;;;;;;;3.00;100.00;103522.64;1948866;72;85690;-77
2022/01/14 19:38:52;;;;;;;81.83;74.27;;;;;;;2.71;100.00;103520.37;1982991;71;39597;-78
2022/01/14 19:44:35;;;;;;;75.50;68.73;;;;;;;2.29;100.00;103519.91;1882996;74;86374;-72
2022/01/14 19:50:21;;;;;;;75.10;68.47;;;;;;;2.38;100.00;103508.96;1792336;78;86936;-75
2022/01/14 19:59:12;;;;;;;74.30;67.73;;;;;;;2.39;100.00;103499.20;1892146;75;86423;-74
2022/01/14 20:01:42;;;;;;;71.97;66.03;;;;;;;2.46;100.00;103511.22;1784989;75;936908;-74
2022/01/14 20:07:29;;;;;;;70.93;64.53;;;;;;;2.14;100.00;103490.00;1881757;74;86579;-75
2022/01/14 20:13:13;;;;;;;68.93;62.93;;;;;;;2.19;100.00;103493.63;1914657;72;86485;-73
2022/01/14 20:18:59;;;;;;;67.57;61.77;;;;;;;2.07;100.00;103482.11;1932607;71;39602;-70
2022/01/14 20:24:43;;;;;;;71.37;65.27;;;;;;;2.07;100.00;103473.87;1815556;76;86164;-73
2022/01/14 20:30:28;;;;;;;70.47;63.97;;;;;;;2.06;100.00;103481.75;1866609;74;86353;-75
2022/01/14 20:36:14;;;;;;;70.57;63.97;;;;;;;2.04;100.00;103471.98;1908848;74;86580;-73
2022/01/14 20:42:03;;;;;;;71.13;64.63;;;;;;;2.20;100.00;103468.79;1985420;71;39631;-74
2022/01/14 20:47:48;;;;;;;75.60;68.50;;;;;;;2.12;100.00;103470.14;1887154;74;85662;-74
2022/01/14 20:53:33;;;;;;;71.37;65.10;;;;;;;2.13;100.00;103465.01;1798786;78;86369;-73
2022/01/14 20:59:18;;;;;;;82.73;74.93;;;;;;;2.23;100.00;103462.97;1924123;73;86476;-71
2022/01/14 21:05:03;;;;;;;75.23;68.30;;;;;;;2.31;100.00;103451.69;1909021;71;39575;-72
2022/01/14 21:10:46;;;;;;;74.73;67.70;;;;;;;2.19;100.00;103447.01;1838936;76;85750;-70
2022/01/14 21:16:30;;;;;;;75.33;68.00;;;;;;;2.12;100.00;103435.86;1884372;74;86603;-73
2022/01/14 21:22:18;;;;;;;74.47;67.57;;;;;;;1.90;100.00;103436.45;1920448;73;86010;-71
2022/01/14 21:28:03;;;;;;;74.23;67.40;;;;;;;1.88;100.00;103428.06;1983372;71;68599;-71
2022/01/14 21:33:49;;;;;;;77.97;70.87;;;;;;;1.85;100.00;103431.98;1863816;75;86376;-70
2022/01/14 21:39:34;;;;;;;78.83;71.23;;;;;;;1.85;100.00;103442.94;1810200;78;86497;-72
2022/01/14 21:45:20;;;;;;;81.03;73.03;;;;;;;1.92;100.00;103430.31;1938215;73;86741;-72
2022/01/14 21:51:04;;;;;;;74.47;67.67;;;;;;;2.00;100.00;103415.27;1914417;74;86472;-72
2022/01/14 21:56:48;;;;;;;73.63;66.90;;;;;;;1.75;100.00;103407.44;1811507;78;86614;-72
2022/01/14 22:02:33;;;;;;;66.77;61.07;;;;;;;1.42;100.00;103394.61;1808811;78;86490;-71
2022/01/14 22:08:19;;;;;;;70.37;64.67;;;;;;;1.33;100.00;103396.95;1920548;73;86630;-70
2022/01/14 22:14:06;;;;;;;69.17;63.27;;;;;;;1.36;100.00;103386.55;1982414;71;39637;-71
2022/01/14 22:19:48;;;;;;;76.70;69.97;;;;;;;1.40;100.00;103380.74;1803526;78;86562;-71
2022/01/14 22:25:34;;;;;;;75.57;68.87;;;;;;;1.64;100.00;103374.00;1808942;78;86715;-70
2022/01/14 22:31:19;;;;;;;72.97;66.03;;;;;;;1.48;100.00;103364.34;1907759;72;86537;-73
2022/01/14 22:37:03;;;;;;;75.80;68.53;;;;;;;1.47;100.00;103360.75;1981135;71;39544;-71
2022/01/14 22:42:48;;;;;;;79.17;71.50;;;;;;;1.72;100.00;103358.45;1831732;76;86895;-73
2022/01/14 22:48:33;;;;;;;80.97;73.27;;;;;;;1.53;100.00;103351.02;1802011;78;86570;-74
2022/01/14 22:54:19;;;;;;;82.57;74.87;;;;;;;1.32;100.00;103356.41;1908823;72;86946;-71
2022/01/14 23:00:09;;;;;;;80.77;73.73;;;;;;;1.38;100.00;103339.31;1817739;77;86351;-71
2022/01/14 23:05:53;;;;;;;84.70;77.27;;;;;;;1.42;100.00;103330.76;1981400;71;39782;-71
2022/01/14 23:11:38;;;;;;;86.83;79.10;;;;;;;1.25;100.00;103325.21;1883377;74;86594;-71
2022/01/14 23:17:22;;;;;;;85.90;78.10;;;;;;;1.25;100.00;103318.36;1868396;75;86383;-73
2022/01/14 23:23:07;;;;;;;87.20;79.73;;;;;;;1.32;100.00;103311.23;1913831;74;85566;-73
2022/01/14 23:28:51;;;;;;;85.43;78.07;;;;;;;1.22;100.00;103305.02;1987490;71;40227;-72
2022/01/14 23:34:35;;;;;;;92.10;83.13;;;;;;;1.31;100.00;103294.95;1882703;75;85470;-72
2022/01/14 23:40:22;;;;;;;98.27;89.33;;;;;;;1.39;100.00;103288.14;1891328;74;86441;-72
2022/01/14 23:46:20;;;;;;;93.23;84.47;;;;;;;1.33;100.00;103275.09;1909239;72;86845;-71
2022/01/14 23:51:56;;;;;;;95.67;86.90;;;;;;;1.46;100.00;103275.48;1981354;71;39701;-73
2022/01/14 23:57:40;;;;;;;96.97;87.90;;;;;;;1.39;100.00;103274.45;1839922;76;86055;-73
